Time;durP1;ratioP1;P1;durP2;ratioP2;P2;SDS_P1;SDS_P2;PMS_P1;PMS_P2;Temp;Humidity;BMP_temperature;BMP_pressure;BME280_temperature;BME280_humidity;BME280_pressure;Samples;Min_cycle;Max_cycle;Signal;HPM_P1;HPM_P2
2022/06/05 00:01:18;;;;;;;11.85;7.85;;;;;;;10.86;68.78;102299.00;4988128;28;20037;-48
2022/06/05 00:03:58;;;;;;;12.05;9.00;;;;;;;10.84;68.55;102311.78;4989479;28;20030;-47
2022/06/05 00:06:50;;;;;;;12.65;9.20;;;;;;;10.82;68.79;102305.81;4990558;28;20033;-48
2022/06/05 00:09:34;;;;;;;14.75;8.38;;;;;;;10.81;68.77;102308.72;4982261;28;20038;-48
2022/06/05 00:12:13;;;;;;;14.57;9.10;;;;;;;10.78;67.84;102309.16;4988282;28;20018;-48
2022/06/05 00:14:39;;;;;;;11.30;6.97;;;;;;;10.77;67.26;102311.00;4986810;28;20362;-47
2022/06/05 00:17:12;;;;;;;11.10;7.43;;;;;;;10.70;67.38;102301.31;4987807;28;20041;-48
2022/06/05 00:19:40;;;;;;;11.50;7.28;;;;;;;10.63;67.33;102303.19;4984867;28;20109;-49
2022/06/05 00:22:06;;;;;;;9.38;7.13;;;;;;;10.52;67.21;102297.44;4988059;28;20022;-48
2022/06/05 00:24:33;;;;;;;9.80;7.93;;;;;;;10.41;67.90;102306.16;4982207;28;20535;-48
2022/06/05 00:27:10;;;;;;;10.75;7.38;;;;;;;10.28;68.96;102311.50;4983153;28;20033;-47
2022/06/05 00:30:01;;;;;;;15.25;7.57;;;;;;;10.20;69.73;102311.69;4988490;28;20030;-48
2022/06/05 00:32:44;;;;;;;12.88;8.00;;;;;;;10.14;70.28;102316.00;4986900;28;20034;-47
2022/06/05 00:35:15;;;;;;;12.55;8.20;;;;;;;10.18;69.94;102311.88;4986295;28;20050;-48
2022/06/05 00:37:46;;;;;;;13.10;9.13;;;;;;;10.18;70.90;102311.06;4984955;28;20033;-48
2022/06/05 00:40:55;;;;;;;14.13;9.27;;;;;;;9.92;74.00;102317.25;4984346;28;20388;-47
2022/06/05 00:43:24;;;;;;;14.85;10.32;;;;;;;10.08;72.86;102316.84;4984923;28;20116;-48
2022/06/05 00:45:51;;;;;;;17.55;9.38;;;;;;;10.09;71.28;102313.13;4988559;28;20118;-48
2022/06/05 00:48:18;;;;;;;12.25;8.70;;;;;;;10.08;70.33;102308.00;4987389;28;20034;-48
2022/06/05 00:50:45;;;;;;;12.77;8.80;;;;;;;10.05;69.36;102317.25;4986776;28;20030;-47
2022/06/05 00:53:12;;;;;;;11.00;8.43;;;;;;;9.98;69.50;102319.94;4986500;28;20022;-48
2022/06/05 00:55:47;;;;;;;12.48;8.70;;;;;;;9.90;69.45;102314.78;4987248;28;20050;-47
2022/06/05 00:58:13;;;;;;;12.40;8.73;;;;;;;9.89;68.91;102331.06;4987979;28;20429;-47
2022/06/05 01:00:42;;;;;;;12.55;8.38;;;;;;;9.87;68.64;102327.72;4983171;28;20479;-47
2022/06/05 01:03:11;;;;;;;9.63;7.13;;;;;;;9.83;68.82;102321.16;4979744;28;20496;-48
2022/06/05 01:05:38;;;;;;;9.20;6.72;;;;;;;9.75;69.12;102327.53;4985590;28;20156;-47
2022/06/05 01:08:04;;;;;;;10.15;6.63;;;;;;;9.71;68.87;102331.66;4987254;28;20022;-48
2022/06/05 01:10:40;;;;;;;19.05;7.93;;;;;;;9.76;69.40;102333.72;4989276;28;20045;-47
2022/06/05 01:13:14;;;;;;;15.25;8.57;;;;;;;9.73;69.66;102334.94;4986486;28;20507;-49
2022/06/05 01:15:45;;;;;;;12.88;8.82;;;;;;;9.63;69.71;102332.66;4983019;28;20328;-47
2022/06/05 01:18:33;;;;;;;18.60;9.93;;;;;;;9.61;70.35;102331.22;4981794;28;20050;-48
2022/06/05 01:21:01;;;;;;;15.60;10.30;;;;;;;9.66;70.65;102332.25;4989808;28;20029;-49
2022/06/05 01:23:39;;;;;;;15.27;10.43;;;;;;;9.70;70.54;102335.34;4987504;28;20538;-48
2022/06/05 01:26:27;;;;;;;17.02;11.15;;;;;;;9.69;70.24;102333.69;4986181;28;20034;-48
2022/06/05 01:29:06;;;;;;;18.30;11.13;;;;;;;9.62;70.27;102328.31;4986548;28;20038;-47
2022/06/05 01:31:38;;;;;;;14.40;10.52;;;;;;;9.67;69.64;102325.03;4986248;28;20034;-48
2022/06/05 01:34:37;;;;;;;17.02;10.30;;;;;;;9.67;70.10;102330.38;4983426;28;20026;-47
2022/06/05 01:37:16;;;;;;;18.83;10.85;;;;;;;9.74;69.53;102325.88;4984691;28;20400;-47
2022/06/05 01:39:54;;;;;;;20.20;11.50;;;;;;;9.72;70.01;102316.41;4987382;28;20054;-48
2022/06/05 01:42:28;;;;;;;18.58;11.80;;;;;;;9.68;69.98;102321.34;4988019;28;20030;-47
2022/06/05 01:45:02;;;;;;;16.63;10.90;;;;;;;9.66;70.45;102326.88;4988577;28;20068;-48
2022/06/05 01:47:36;;;;;;;18.75;11.05;;;;;;;9.63;70.27;102329.16;4988115;28;21510;-47
2022/06/05 01:50:16;;;;;;;18.95;10.90;;;;;;;9.53;70.88;102318.84;4992856;28;20029;-48
2022/06/05 01:52:55;;;;;;;15.82;10.80;;;;;;;9.47;70.97;102324.19;4991372;28;20488;-48
2022/06/05 01:55:30;;;;;;;14.75;10.70;;;;;;;9.42;70.97;102322.13;4990706;28;20038;-48
2022/06/05 01:57:59;;;;;;;14.98;9.88;;;;;;;9.43;70.73;102314.91;4987266;28;20125;-47
2022/06/05 02:00:25;;;;;;;16.65;9.95;;;;;;;9.41;70.75;102314.28;4990784;28;20196;-48
2022/06/05 02:03:01;;;;;;;15.77;9.32;;;;;;;9.33;71.01;102318.78;4986609;28;20744;-49
2022/06/05 02:05:31;;;;;;;11.93;8.38;;;;;;;9.28;70.51;102310.53;4989827;28;20029;-48
2022/06/05 02:08:06;;;;;;;13.13;8.63;;;;;;;9.18;70.54;102312.78;4988602;28;20057;-47
2022/06/05 02:10:42;;;;;;;12.80;9.65;;;;;;;9.08;71.00;102304.31;4988904;28;20113;-47
2022/06/05 02:13:07;;;;;;;13.82;8.88;;;;;;;9.06;70.20;102303.69;4990059;28;20022;-48
2022/06/05 02:15:33;;;;;;;12.43;8.90;;;;;;;9.01;70.31;102298.13;4988451;28;20033;-47
2022/06/05 02:18:00;;;;;;;13.80;9.18;;;;;;;8.98;70.12;102302.03;4990001;28;20403;-48
2022/06/05 02:20:26;;;;;;;13.93;9.63;;;;;;;8.96;70.25;102292.53;4990752;28;20061;-48
2022/06/05 02:22:52;;;;;;;14.52;10.35;;;;;;;8.86;71.22;102284.91;4990662;28;20061;-47
2022/06/05 02:25:21;;;;;;;17.60;12.18;;;;;;;8.78;72.02;102288.53;4988617;28;20029;-47
2022/06/05 02:27:47;;;;;;;17.15;11.13;;;;;;;8.72;72.49;102294.69;4989129;28;20479;-48
2022/06/05 02:30:15;;;;;;;14.40;10.23;;;;;;;8.65;72.26;102296.50;4988835;28;20030;-50
2022/06/05 02:32:53;;;;;;;14.15;10.43;;;;;;;8.52;73.03;102295.59;4985386;28;20091;-47
2022/06/05 02:35:33;;;;;;;16.85;10.23;;;;;;;8.34;72.87;102294.25;4987690;28;20038;-47
2022/06/05 02:38:33;;;;;;;12.30;9.48;;;;;;;8.43;72.28;102287.72;4987139;28;20018;-47
2022/06/05 02:41:01;;;;;;;15.75;10.82;;;;;;;8.59;71.95;102283.09;4987716;28;20080;-48
2022/06/05 02:43:34;;;;;;;16.58;11.05;;;;;;;8.62;71.59;102283.56;4989661;28;20041;-48
2022/06/05 02:46:24;;;;;;;17.45;11.65;;;;;;;8.61;72.21;102281.06;4988279;28;20041;-48
2022/06/05 02:48:56;;;;;;;14.38;10.65;;;;;;;8.60;72.02;102285.56;4991353;28;20120;-48
2022/06/05 02:51:31;;;;;;;16.15;10.43;;;;;;;8.54;72.39;102283.69;4988135;28;20056;-47
2022/06/05 02:53:58;;;;;;;18.10;11.05;;;;;;;8.57;72.13;102283.31;4989060;28;20038;-47
2022/06/05 02:56:28;;;;;;;15.65;10.55;;;;;;;8.55;72.08;102279.19;4991608;28;20030;-48
2022/06/05 02:58:56;;;;;;;15.10;10.90;;;;;;;8.52;72.05;102284.94;4989691;28;20033;-48
2022/06/05 03:04:07;;;;;;;14.67;11.23;;;;;;;8.49;72.15;102283.47;4991340;28;20068;-47
2022/06/05 03:06:35;;;;;;;16.50;11.50;;;;;;;8.45;71.79;102284.91;4984042;28;20495;-48
2022/06/05 03:09:00;;;;;;;17.92;11.20;;;;;;;8.38;72.14;102279.50;4988287;28;20436;-47
2022/06/05 03:11:26;;;;;;;16.55;11.63;;;;;;;8.37;72.35;102285.84;4990367;28;20084;-48
2022/06/05 03:13:52;;;;;;;16.48;11.82;;;;;;;8.33;73.09;102289.91;4989524;28;20065;-47
2022/06/05 03:16:17;;;;;;;18.42;12.38;;;;;;;8.31;73.44;102283.13;4988863;28;20036;-48
2022/06/05 03:18:43;;;;;;;17.95;11.93;;;;;;;8.33;73.55;102283.75;4986690;28;20066;-47
2022/06/05 03:21:09;;;;;;;15.68;11.40;;;;;;;8.35;74.02;102284.41;4989093;28;20321;-48
2022/06/05 03:23:34;;;;;;;11.80;8.95;;;;;;;8.29;74.10;102287.84;4987810;28;20056;-48
2022/06/05 03:26:00;;;;;;;14.52;9.50;;;;;;;8.24;74.93;102285.72;4987889;28;20100;-47
2022/06/05 03:28:26;;;;;;;15.18;9.70;;;;;;;8.23;74.63;102283.25;4986247;28;20604;-47
2022/06/05 03:30:52;;;;;;;13.82;8.68;;;;;;;8.28;74.55;102286.19;4988560;28;20034;-47
2022/06/05 03:33:18;;;;;;;14.82;10.45;;;;;;;8.26;74.31;102278.38;4989050;28;20037;-48
2022/06/05 03:35:45;;;;;;;13.68;9.68;;;;;;;8.31;74.21;102283.13;4986248;28;20053;-48
2022/06/05 03:38:13;;;;;;;16.25;10.95;;;;;;;8.38;73.68;102294.69;4989439;28;20109;-48
2022/06/05 03:40:43;;;;;;;20.45;12.32;;;;;;;8.47;74.20;102296.22;4990543;28;20030;-47
2022/06/05 03:43:09;;;;;;;17.60;12.75;;;;;;;8.53;74.37;102289.25;4987590;28;20109;-48
2022/06/05 03:45:35;;;;;;;17.85;12.05;;;;;;;8.58;74.25;102287.63;4987601;28;20121;-49
2022/06/05 03:48:00;;;;;;;19.63;13.00;;;;;;;8.69;74.09;102295.09;4986422;28;20479;-49
2022/06/05 03:50:26;;;;;;;17.15;12.70;;;;;;;8.81;73.72;102302.56;4989237;28;20034;-48
2022/06/05 03:52:51;;;;;;;20.67;13.55;;;;;;;8.87;74.47;102299.91;4987451;28;20060;-47
2022/06/05 03:55:21;;;;;;;19.77;13.38;;;;;;;8.91;75.33;102303.00;4987000;28;20038;-48
2022/06/05 03:57:46;;;;;;;19.15;13.50;;;;;;;8.93;75.92;102307.13;4985590;28;20033;-47
2022/06/05 04:00:15;;;;;;;22.05;13.82;;;;;;;9.01;75.49;102298.13;4985942;28;20389;-48
2022/06/05 04:02:41;;;;;;;23.50;14.70;;;;;;;9.05;76.34;102294.84;4989767;28;20038;-46
2022/06/05 04:05:08;;;;;;;22.95;14.05;;;;;;;9.11;76.49;102292.38;4976658;28;20424;-48
2022/06/05 04:07:33;;;;;;;22.75;14.95;;;;;;;9.18;76.50;102286.06;4983326;28;20180;-48
2022/06/05 04:09:59;;;;;;;20.15;13.77;;;;;;;9.25;76.91;102284.22;4985444;28;20429;-48
2022/06/05 04:12:24;;;;;;;17.88;12.70;;;;;;;9.33;76.61;102283.19;4985807;28;20436;-47
2022/06/05 04:14:50;;;;;;;18.42;12.98;;;;;;;9.41;76.36;102282.19;4989140;28;20038;-48
2022/06/05 04:17:16;;;;;;;20.27;13.95;;;;;;;9.48;76.42;102283.00;4988792;28;20239;-48
2022/06/05 04:19:42;;;;;;;22.40;13.80;;;;;;;9.55;77.25;102286.53;4987964;28;20034;-51
2022/06/05 04:22:07;;;;;;;19.65;14.40;;;;;;;9.61;77.17;102289.22;4986751;28;20018;-48
2022/06/05 04:24:33;;;;;;;19.38;13.38;;;;;;;9.72;77.19;102277.09;4986351;28;20559;-49
2022/06/05 04:26:59;;;;;;;20.23;14.07;;;;;;;9.82;78.15;102284.69;4987254;28;20031;-49
2022/06/05 04:29:25;;;;;;;18.40;13.02;;;;;;;9.91;77.24;102294.19;4985014;28;20037;-46
2022/06/05 04:31:51;;;;;;;20.92;13.82;;;;;;;10.03;76.96;102294.38;4989613;28;20022;-48
2022/06/05 04:34:21;;;;;;;22.13;14.65;;;;;;;10.00;79.29;102293.75;4986077;28;20030;-47
2022/06/05 04:36:47;;;;;;;24.05;14.95;;;;;;;10.04;80.08;102298.69;4984617;28;20400;-48
2022/06/05 04:39:13;;;;;;;21.02;13.57;;;;;;;10.15;79.03;102300.78;4986027;28;20022;-48
2022/06/05 04:41:40;;;;;;;20.65;14.07;;;;;;;10.30;78.35;102298.72;4986469;28;20492;-47
2022/06/05 04:44:08;;;;;;;22.55;14.18;;;;;;;10.42;77.84;102286.34;4987903;28;20037;-49
2022/06/05 04:46:34;;;;;;;21.92;14.13;;;;;;;10.52;78.72;102286.72;4985045;28;20618;-47
2022/06/05 04:49:00;;;;;;;19.30;13.55;;;;;;;10.62;78.97;102277.44;4988543;28;20034;-48
2022/06/05 04:51:27;;;;;;;21.27;13.93;;;;;;;10.71;79.17;102273.47;4986575;28;20050;-48
2022/06/05 04:53:54;;;;;;;21.00;14.02;;;;;;;10.81;78.62;102272.00;4985776;28;20273;-47
2022/06/05 04:56:24;;;;;;;19.98;13.13;;;;;;;10.89;79.26;102265.56;4983720;28;20266;-49
2022/06/05 04:58:50;;;;;;;23.00;12.00;;;;;;;10.96;79.97;102269.06;4987935;28;20052;-47
2022/06/05 05:01:31;;;;;;;20.55;12.18;;;;;;;11.05;80.34;102267.75;4987956;28;20034;-47
2022/06/05 05:03:58;;;;;;;17.88;12.13;;;;;;;11.12;80.21;102268.53;4983066;28;20040;-48
2022/06/05 05:06:25;;;;;;;19.88;13.98;;;;;;;11.28;80.61;102263.72;4985503;28;20066;-47
2022/06/05 05:08:51;;;;;;;18.20;12.57;;;;;;;11.38;79.72;102270.25;4986977;28;20038;-49
2022/06/05 05:11:19;;;;;;;24.25;13.00;;;;;;;11.45;80.40;102273.72;4986817;28;20049;-48
2022/06/05 05:13:45;;;;;;;24.30;13.40;;;;;;;11.53;80.84;102272.66;4984195;28;20484;-49
2022/06/05 05:16:11;;;;;;;20.65;12.32;;;;;;;11.63;80.24;102270.28;4982277;28;20081;-48
2022/06/05 05:18:37;;;;;;;17.02;12.18;;;;;;;11.74;79.57;102272.28;4984178;28;20404;-47
2022/06/05 05:21:09;;;;;;;18.17;12.30;;;;;;;11.85;79.87;102283.38;4989455;28;20110;-47
2022/06/05 05:23:35;;;;;;;24.02;13.18;;;;;;;11.97;79.49;102278.94;4991557;28;20053;-50
2022/06/05 05:26:08;;;;;;;18.60;12.18;;;;;;;12.03;79.23;102278.06;4991164;28;20484;-49
2022/06/05 05:28:34;;;;;;;16.42;11.95;;;;;;;12.16;79.14;102266.34;4990006;28;20030;-48
2022/06/05 05:31:00;;;;;;;17.55;11.15;;;;;;;12.20;79.03;102270.25;4992509;28;20026;-48
2022/06/05 05:33:26;;;;;;;16.80;11.32;;;;;;;12.30;78.76;102262.50;4991305;28;20034;-51
2022/06/05 05:35:51;;;;;;;15.07;10.23;;;;;;;12.37;78.46;102247.94;4992460;28;20200;-49
2022/06/05 05:38:17;;;;;;;17.65;10.50;;;;;;;12.50;78.01;102246.16;4991563;28;20381;-48
2022/06/05 05:43:26;;;;;;;16.60;11.35;;;;;;;12.69;78.10;102228.97;4984534;28;20045;-50
2022/06/05 05:45:52;;;;;;;18.67;11.73;;;;;;;12.79;77.77;102226.56;4989755;28;20034;-50
2022/06/05 05:48:17;;;;;;;18.17;10.90;;;;;;;12.88;77.71;102225.19;4991518;28;20108;-47
2022/06/05 05:50:47;;;;;;;17.35;11.35;;;;;;;12.98;78.48;102230.06;4988842;28;20543;-47
2022/06/05 05:53:12;;;;;;;16.25;10.35;;;;;;;13.09;77.83;102218.50;4989188;28;20559;-48
2022/06/05 05:55:38;;;;;;;15.60;9.43;;;;;;;13.16;77.46;102229.19;4989752;28;20034;-50
2022/06/05 05:58:03;;;;;;;15.65;10.38;;;;;;;13.24;76.76;102221.63;4988957;28;20027;-48
2022/06/05 06:00:29;;;;;;;14.95;10.18;;;;;;;13.32;76.60;102220.50;4991276;28;20129;-48
2022/06/05 06:02:54;;;;;;;17.35;11.00;;;;;;;13.38;76.87;102214.16;4989699;28;20527;-47
2022/06/05 06:05:20;;;;;;;14.98;10.05;;;;;;;13.50;76.59;102211.50;4986962;28;20540;-49
2022/06/05 06:07:46;;;;;;;18.67;11.15;;;;;;;13.63;76.65;102210.47;4985874;28;20056;-49
2022/06/05 06:10:12;;;;;;;19.02;11.65;;;;;;;13.75;76.99;102209.41;4983650;28;20023;-49
2022/06/05 06:12:38;;;;;;;16.58;10.77;;;;;;;13.90;76.46;102217.03;4989413;28;20023;-48
2022/06/05 06:15:04;;;;;;;20.05;11.90;;;;;;;14.04;76.35;102221.16;4991255;28;20480;-47
2022/06/05 06:17:30;;;;;;;16.58;11.05;;;;;;;14.17;76.07;102209.28;4987272;28;20037;-50
2022/06/05 06:19:55;;;;;;;16.58;10.88;;;;;;;14.29;76.07;102220.88;4987270;28;20037;-48
2022/06/05 06:22:21;;;;;;;17.23;11.32;;;;;;;14.39;76.18;102222.97;4989104;28;20416;-48
2022/06/05 06:24:47;;;;;;;14.50;9.82;;;;;;;14.50;75.63;102235.63;4987738;28;20408;-48
2022/06/05 06:27:13;;;;;;;16.20;9.63;;;;;;;14.60;74.70;102235.88;4992038;28;20022;-48
2022/06/05 06:29:38;;;;;;;15.80;9.07;;;;;;;14.72;74.11;102227.72;4989092;28;20117;-48
2022/06/05 06:32:04;;;;;;;15.25;10.05;;;;;;;14.86;73.93;102236.34;4990935;28;20026;-48
2022/06/05 06:34:30;;;;;;;19.13;10.23;;;;;;;15.01;73.38;102231.25;4987352;28;20927;-48
2022/06/05 06:36:57;;;;;;;15.02;10.20;;;;;;;15.11;73.28;102236.84;4991056;28;20148;-49
2022/06/05 06:39:22;;;;;;;15.27;10.40;;;;;;;15.25;72.82;102238.16;4986246;28;20031;-48
2022/06/05 06:41:49;;;;;;;15.07;9.88;;;;;;;15.34;72.31;102231.31;4989516;28;20503;-49
2022/06/05 06:44:16;;;;;;;14.15;9.27;;;;;;;15.48;71.85;102225.63;4988312;28;20439;-48
2022/06/05 06:46:42;;;;;;;15.00;9.18;;;;;;;15.59;71.63;102224.72;4986960;28;20031;-47
2022/06/05 06:49:08;;;;;;;15.15;9.45;;;;;;;15.69;71.50;102223.03;4989867;28;20084;-49
2022/06/05 06:51:33;;;;;;;13.50;9.73;;;;;;;15.78;71.02;102214.50;4991060;28;20458;-49
2022/06/05 06:53:59;;;;;;;13.07;9.75;;;;;;;15.87;70.68;102213.84;4984618;28;20030;-48
2022/06/05 06:56:28;;;;;;;16.73;9.32;;;;;;;15.99;70.39;102211.88;4989236;28;20545;-47
2022/06/05 06:58:55;;;;;;;16.23;10.15;;;;;;;16.07;69.96;102201.69;4985279;28;20025;-48
2022/06/05 07:01:21;;;;;;;13.15;9.50;;;;;;;16.17;70.09;102205.34;4987896;28;20464;-47
2022/06/05 07:03:47;;;;;;;13.43;9.00;;;;;;;16.31;70.14;102193.06;4987556;28;20069;-48
2022/06/05 07:06:14;;;;;;;16.15;10.25;;;;;;;16.46;69.62;102189.75;4987268;28;20034;-50
2022/06/05 07:08:41;;;;;;;14.68;9.60;;;;;;;16.59;69.36;102192.06;4987513;28;20034;-48
2022/06/05 07:11:09;;;;;;;13.07;9.05;;;;;;;16.71;68.97;102191.16;4989810;28;20076;-49
2022/06/05 07:13:35;;;;;;;13.13;9.60;;;;;;;16.79;68.64;102186.09;4988619;28;20030;-51
2022/06/05 07:16:01;;;;;;;14.57;9.63;;;;;;;16.90;68.32;102179.72;4984277;28;20104;-48
2022/06/05 07:18:26;;;;;;;14.63;10.23;;;;;;;16.98;67.78;102185.75;4989036;28;20487;-50
2022/06/05 07:20:52;;;;;;;14.38;8.98;;;;;;;16.95;67.33;102184.38;4991009;28;20034;-49
2022/06/05 07:23:18;;;;;;;11.80;8.90;;;;;;;17.01;67.17;102183.34;4989623;28;20077;-48
2022/06/05 07:25:51;;;;;;;16.67;10.70;;;;;;;17.06;66.92;102186.13;4986968;28;20034;-49
2022/06/05 07:28:19;;;;;;;13.83;9.77;;;;;;;17.21;66.50;102185.41;4989754;28;20042;-49
2022/06/05 07:30:49;;;;;;;17.02;10.43;;;;;;;17.33;66.03;102182.53;4987099;28;20030;-48
2022/06/05 07:33:16;;;;;;;12.80;9.25;;;;;;;17.43;65.81;102180.75;4987516;28;20037;-50
2022/06/05 07:35:42;;;;;;;13.68;8.93;;;;;;;17.62;65.90;102169.50;4984665;28;20160;-47
2022/06/05 07:38:12;;;;;;;14.15;9.48;;;;;;;17.77;65.18;102175.88;4988175;28;20022;-50
2022/06/05 07:40:42;;;;;;;13.77;9.23;;;;;;;17.88;64.68;102174.03;4986966;28;20121;-50
2022/06/05 07:43:10;;;;;;;12.60;9.30;;;;;;;17.96;64.44;102165.41;4988339;28;20050;-48
2022/06/05 07:45:37;;;;;;;11.73;9.45;;;;;;;18.12;64.25;102169.00;4984965;28;20046;-50
2022/06/05 07:48:04;;;;;;;15.85;8.93;;;;;;;18.23;64.18;102164.44;4987335;28;20430;-49
2022/06/05 07:50:30;;;;;;;14.88;10.10;;;;;;;18.28;63.68;102162.56;4988527;28;20042;-49
2022/06/05 07:55:40;;;;;;;11.30;8.20;;;;;;;18.49;62.92;102165.34;4985461;28;20092;-48
2022/06/05 07:58:05;;;;;;;10.93;8.63;;;;;;;18.56;63.09;102165.91;4986512;28;20026;-49
2022/06/05 08:00:31;;;;;;;9.90;8.55;;;;;;;18.78;62.96;102160.28;4982442;28;20456;-50
2022/06/05 08:02:57;;;;;;;11.10;8.52;;;;;;;18.97;62.73;102159.50;4988009;28;20026;-49
2022/06/05 08:05:22;;;;;;;11.02;8.80;;;;;;;19.17;62.66;102160.59;4985672;28;20026;-50
2022/06/05 08:07:48;;;;;;;12.50;9.60;;;;;;;19.30;62.29;102162.78;4989522;28;20037;-49
2022/06/05 08:10:13;;;;;;;12.13;8.80;;;;;;;19.40;61.80;102161.97;4984531;28;20045;-48
2022/06/05 08:12:39;;;;;;;10.93;8.70;;;;;;;19.47;61.70;102157.88;4989956;28;20022;-49
2022/06/05 08:15:12;;;;;;;11.43;8.23;;;;;;;19.57;61.22;102155.19;4989874;28;20108;-50
2022/06/05 08:17:38;;;;;;;10.98;8.27;;;;;;;19.70;61.14;102151.06;4987302;28;20038;-49
2022/06/05 08:20:07;;;;;;;10.75;8.75;;;;;;;19.83;61.36;102158.66;4984025;28;20560;-48
2022/06/05 08:22:34;;;;;;;10.82;8.18;;;;;;;19.98;60.63;102151.56;4984452;28;20041;-50
2022/06/05 08:24:59;;;;;;;11.73;8.95;;;;;;;19.65;59.56;102153.81;4987266;28;20030;-49
2022/06/05 08:27:26;;;;;;;11.27;8.40;;;;;;;19.73;59.26;102138.81;4986944;28;20032;-49
2022/06/05 08:29:55;;;;;;;10.45;8.90;;;;;;;19.84;60.13;102146.69;4986875;28;20340;-50
2022/06/05 08:32:22;;;;;;;12.93;8.85;;;;;;;20.07;59.69;102145.25;4985819;28;20034;-49
2022/06/05 08:34:47;;;;;;;13.00;8.10;;;;;;;20.20;59.29;102138.41;4983036;28;20030;-50
2022/06/05 08:43:01;;;;;;;13.13;8.45;;;;;;;20.07;57.78;102118.03;4982677;28;20057;-51
2022/06/05 08:46:08;;;;;;;44.13;31.92;;;;;;;20.16;57.77;102115.56;4983692;28;20108;-50
2022/06/05 08:48:47;;;;;;;111.53;73.85;;;;;;;20.30;57.10;102115.78;4934617;28;20046;-49
2022/06/05 08:51:39;;;;;;;22.73;13.00;;;;;;;20.34;56.78;102117.66;4933046;28;20038;-49
2022/06/05 08:54:06;;;;;;;10.68;7.75;;;;;;;20.49;56.81;102109.44;4968401;28;20033;-50
2022/06/05 08:56:39;;;;;;;10.52;7.65;;;;;;;20.49;56.94;102111.34;4982150;28;20447;-50
2022/06/05 08:59:27;;;;;;;13.40;8.15;;;;;;;20.68;58.02;102106.06;4987777;28;20030;-48
2022/06/05 09:02:17;;;;;;;12.48;8.23;;;;;;;20.81;55.69;102106.22;4983384;28;20066;-49
2022/06/05 09:05:01;;;;;;;12.05;7.80;;;;;;;21.00;57.34;102109.06;4986338;28;20042;-50
2022/06/05 09:07:36;;;;;;;15.38;7.55;;;;;;;21.09;55.75;102106.53;4987710;28;20046;-48
2022/06/05 09:10:15;;;;;;;14.20;7.32;;;;;;;21.25;55.88;102110.78;4987600;28;20090;-48
2022/06/05 09:13:25;;;;;;;10.68;9.10;;;;;;;21.45;56.63;102117.16;4983636;28;20031;-49
2022/06/05 09:16:05;;;;;;;28.15;21.88;;;;;;;21.49;54.55;102110.00;4980919;28;20412;-47
2022/06/05 09:18:37;;;;;;;13.60;10.48;;;;;;;21.62;54.00;102099.22;4985197;28;20034;-46
2022/06/05 09:21:09;;;;;;;11.70;7.03;;;;;;;21.74;54.89;102107.03;4985413;28;20080;-47
2022/06/05 09:23:55;;;;;;;10.20;7.45;;;;;;;21.83;55.43;102097.09;4986057;28;20483;-48
2022/06/05 09:26:32;;;;;;;8.93;6.90;;;;;;;22.01;54.87;102087.31;4987719;28;20037;-48
2022/06/05 09:29:00;;;;;;;8.98;6.82;;;;;;;22.07;53.84;102090.81;4987465;28;20079;-48
2022/06/05 09:31:34;;;;;;;10.00;7.28;;;;;;;22.15;54.88;102081.97;4985231;28;20037;-48
2022/06/05 09:34:09;;;;;;;7.28;6.57;;;;;;;22.16;52.70;102081.69;4982199;28;20022;-48
2022/06/05 09:36:38;;;;;;;7.22;6.07;;;;;;;22.31;53.55;102088.84;4983620;28;20471;-48
2022/06/05 09:39:24;;;;;;;7.22;6.50;;;;;;;22.35;51.75;102084.44;5003209;22;20022;-45
2022/06/05 09:42:13;;;;;;;8.20;6.20;;;;;;;22.47;51.06;102075.81;5008789;28;20525;-46
2022/06/05 09:44:48;;;;;;;8.73;6.70;;;;;;;22.58;51.40;102072.59;4996886;28;20030;-46
2022/06/05 09:47:28;;;;;;;;;;;;;;;22.69;51.97;102072.44;5004278;28;20021;-46
2022/06/05 09:49:59;;;;;;;10.23;5.97;;;;;;;22.96;52.80;102067.09;4997064;28;19924;-47
2022/06/05 09:52:30;;;;;;;6.63;6.03;;;;;;;23.11;52.53;102060.56;4984223;28;20165;-45
2022/06/05 09:55:08;;;;;;;9.23;5.88;;;;;;;22.96;48.02;102056.16;4987008;28;20037;-45
2022/06/05 10:00:43;;;;;;;7.25;5.70;;;;;;;22.93;48.81;102067.69;4985257;28;20049;-45
2022/06/05 10:03:22;;;;;;;8.77;6.10;;;;;;;22.89;48.16;102061.22;4985508;28;20420;-45
2022/06/05 10:06:18;;;;;;;9.27;7.00;;;;;;;22.81;48.69;102051.75;4995000;28;20435;-45
2022/06/05 10:08:47;;;;;;;7.25;6.38;;;;;;;23.06;49.80;102045.06;4983493;28;20046;-45
2022/06/05 10:11:42;;;;;;;9.35;6.68;;;;;;;23.21;50.01;102047.53;4991653;28;20034;-45
2022/06/05 10:14:32;;;;;;;9.30;6.55;;;;;;;23.38;48.71;102044.19;4986470;28;20023;-45
2022/06/05 10:17:16;;;;;;;8.20;6.32;;;;;;;23.56;49.62;102041.66;4992126;28;20034;-46
2022/06/05 10:20:06;;;;;;;19.00;14.02;;;;;;;23.73;49.38;102031.75;4986830;28;20037;-45
2022/06/05 10:22:52;;;;;;;18.25;13.93;;;;;;;23.89;47.73;102031.44;4995148;28;20042;-45
2022/06/05 10:25:38;;;;;;;36.85;25.45;;;;;;;23.84;46.06;102023.31;4988719;28;20552;-46
2022/06/05 10:28:10;;;;;;;30.45;22.55;;;;;;;24.02;46.91;102039.59;4989453;28;20034;-45
2022/06/05 10:30:43;;;;;;;12.63;8.77;;;;;;;24.11;47.00;102036.97;4991314;28;20105;-45
2022/06/05 10:33:39;;;;;;;9.18;7.38;;;;;;;24.24;47.99;102029.84;4985484;28;20087;-47
2022/06/05 10:36:13;;;;;;;38.60;28.17;;;;;;;24.24;44.98;102025.16;4991023;28;20033;-46
2022/06/05 10:39:11;;;;;;;10.10;7.15;;;;;;;24.02;44.58;102014.97;4994687;28;20027;-46
2022/06/05 10:41:47;;;;;;;6.22;5.63;;;;;;;24.01;44.96;102016.09;4985027;28;20508;-46
2022/06/05 10:44:20;;;;;;;6.60;5.50;;;;;;;23.99;43.97;102009.31;4992869;28;20022;-47
2022/06/05 10:47:19;;;;;;;5.78;4.03;;;;;;;23.94;39.90;102015.69;4986047;28;20030;-46
2022/06/05 10:49:55;;;;;;;8.52;4.22;;;;;;;23.96;40.39;102009.91;4987464;28;20034;-46
2022/06/05 10:52:31;;;;;;;5.38;4.10;;;;;;;23.90;39.10;102009.22;4982547;28;20239;-44
2022/06/05 10:55:19;;;;;;;4.90;4.13;;;;;;;24.03;39.98;102013.84;4988477;28;20030;-45
2022/06/05 10:58:03;;;;;;;4.63;4.18;;;;;;;24.01;40.35;102004.31;4987524;28;20030;-47
2022/06/05 11:00:37;;;;;;;4.68;4.07;;;;;;;24.08;38.68;101994.59;4989857;28;20323;-47
2022/06/05 11:03:20;;;;;;;3.17;2.75;;;;;;;24.16;37.35;101987.53;4994131;28;20064;-46
2022/06/05 11:06:19;;;;;;;3.60;3.10;;;;;;;24.20;35.33;101974.84;4982249;28;20496;-48
2022/06/05 11:09:25;;;;;;;4.35;3.78;;;;;;;24.33;37.60;101979.50;4992496;28;20045;-45
2022/06/05 11:15:11;;;;;;;4.60;3.45;;;;;;;24.46;37.46;101971.53;4989297;28;20041;-45
2022/06/05 11:18:02;;;;;;;8.98;4.35;;;;;;;24.54;37.50;101965.28;4994324;28;20114;-45
2022/06/05 11:20:29;;;;;;;3.97;3.50;;;;;;;24.61;37.63;101962.94;4992861;28;20109;-46
2022/06/05 11:23:06;;;;;;;4.63;3.60;;;;;;;24.76;35.81;101965.25;4988791;28;20460;-45
2022/06/05 11:25:43;;;;;;;3.70;3.10;;;;;;;24.85;34.61;101963.38;4988647;28;20034;-47
2022/06/05 11:28:35;;;;;;;3.40;3.10;;;;;;;24.98;33.81;101951.50;4987644;28;20022;-45
2022/06/05 11:31:13;;;;;;;4.93;3.25;;;;;;;25.02;34.44;101950.91;4989832;28;20026;-45
2022/06/05 11:33:55;;;;;;;7.47;3.63;;;;;;;25.11;34.83;101938.81;4981810;28;20114;-45
2022/06/05 11:36:26;;;;;;;4.47;3.38;;;;;;;25.15;34.84;101933.53;4988902;28;20105;-46
2022/06/05 11:39:02;;;;;;;3.97;3.42;;;;;;;25.18;35.98;101943.88;4987028;28;20064;-45
2022/06/05 11:41:41;;;;;;;4.88;4.10;;;;;;;25.29;36.58;101942.44;4989790;28;20053;-44
2022/06/05 11:44:21;;;;;;;4.35;3.92;;;;;;;25.53;37.17;101929.09;4987654;28;20113;-45
2022/06/05 11:46:56;;;;;;;4.43;4.03;;;;;;;25.71;37.38;101932.72;4985204;28;20069;-48
2022/06/05 11:49:48;;;;;;;4.20;3.78;;;;;;;25.75;34.77;101919.13;4984728;28;20291;-45
2022/06/05 11:52:38;;;;;;;4.53;3.58;;;;;;;25.79;35.13;101922.84;4986662;28;20037;-46
2022/06/05 11:55:53;;;;;;;5.03;3.58;;;;;;;25.86;35.82;101909.47;4990940;28;20033;-45
2022/06/05 11:58:29;;;;;;;4.27;3.80;;;;;;;26.22;37.29;101911.03;4972742;28;20042;-45
2022/06/05 12:01:04;;;;;;;4.05;3.70;;;;;;;26.58;37.39;101914.22;4983544;28;20026;-46